sensor_id;sensor_type;location;lat;lon;timestamp;temperature;humidity
37938;DHT22;23763;48.130;11.602;2023-08-24T00:01:03;25.20;98.70
37938;DHT22;23763;48.130;11.602;2023-08-24T00:03:28;25.20;98.70
37938;DHT22;23763;48.130;11.602;2023-08-24T00:05:54;25.20;98.90
37938;DHT22;23763;48.130;11.602;2023-08-24T00:08:20;25.20;98.90
37938;DHT22;23763;48.130;11.602;2023-08-24T00:10:45;25.20;98.90
37938;DHT22;23763;48.130;11.602;2023-08-24T00:13:12;25.30;99.00
37938;DHT22;23763;48.130;11.602;2023-08-24T00:15:38;25.20;98.90
37938;DHT22;23763;48.130;11.602;2023-08-24T00:18:05;25.20;99.10
37938;DHT22;23763;48.130;11.602;2023-08-24T00:20:31;25.20;99.10
37938;DHT22;23763;48.130;11.602;2023-08-24T00:22:58;25.10;99.30
37938;DHT22;23763;48.130;11.602;2023-08-24T00:25:24;25.10;99.30
37938;DHT22;23763;48.130;11.602;2023-08-24T00:27:54;25.00;99.40
37938;DHT22;23763;48.130;11.602;2023-08-24T00:30:20;25.00;99.50
37938;DHT22;23763;48.130;11.602;2023-08-24T00:32:45;24.90;99.70
37938;DHT22;23763;48.130;11.602;2023-08-24T00:35:11;24.80;99.90
37938;DHT22;23763;48.130;11.602;2023-08-24T00:37:38;24.80;99.90
37938;DHT22;23763;48.130;11.602;2023-08-24T00:40:05;24.80;99.90
37938;DHT22;23763;48.130;11.602;2023-08-24T00:42:40;24.80;99.90
37938;DHT22;23763;48.130;11.602;2023-08-24T00:45:08;24.80;99.90
37938;DHT22;23763;48.130;11.602;2023-08-24T00:47:36;24.70;99.90
37938;DHT22;23763;48.130;11.602;2023-08-24T00:50:02;24.80;99.90
37938;DHT22;23763;48.130;11.602;2023-08-24T00:52:31;24.70;99.90
37938;DHT22;23763;48.130;11.602;2023-08-24T00:54:58;24.70;99.90
37938;DHT22;23763;48.130;11.602;2023-08-24T00:57:25;24.60;99.90
37938;DHT22;23763;48.130;11.602;2023-08-24T00:59:51;24.60;99.90
37938;DHT22;23763;48.130;11.602;2023-08-24T01:02:17;24.60;99.90
37938;DHT22;23763;48.130;11.602;2023-08-24T01:04:42;24.60;99.90
37938;DHT22;23763;48.130;11.602;2023-08-24T01:07:09;24.60;99.90
37938;DHT22;23763;48.130;11.602;2023-08-24T01:09:35;24.60;99.90
37938;DHT22;23763;48.130;11.602;2023-08-24T01:13:00;24.60;99.90
37938;DHT22;23763;48.130;11.602;2023-08-24T01:15:21;24.50;99.90
37938;DHT22;23763;48.130;11.602;2023-08-24T01:17:50;24.50;99.90
37938;DHT22;23763;48.130;11.602;2023-08-24T01:20:18;24.40;99.90
37938;DHT22;23763;48.130;11.602;2023-08-24T01:22:58;24.30;99.90
37938;DHT22;23763;48.130;11.602;2023-08-24T01:25:52;24.30;99.90
37938;DHT22;23763;48.130;11.602;2023-08-24T01:28:20;24.30;99.90
37938;DHT22;23763;48.130;11.602;2023-08-24T01:30:46;24.30;99.90
37938;DHT22;23763;48.130;11.602;2023-08-24T01:33:12;24.30;99.90
37938;DHT22;23763;48.130;11.602;2023-08-24T01:35:39;24.30;99.90
37938;DHT22;23763;48.130;11.602;2023-08-24T01:38:05;24.30;99.90
37938;DHT22;23763;48.130;11.602;2023-08-24T01:43:32;24.20;99.90
37938;DHT22;23763;48.130;11.602;2023-08-24T01:46:03;24.20;99.90
37938;DHT22;23763;48.130;11.602;2023-08-24T01:48:30;24.20;99.90
37938;DHT22;23763;48.130;11.602;2023-08-24T01:50:57;24.20;99.90
37938;DHT22;23763;48.130;11.602;2023-08-24T01:53:23;24.20;99.90
37938;DHT22;23763;48.130;11.602;2023-08-24T01:55:49;24.20;99.90
37938;DHT22;23763;48.130;11.602;2023-08-24T01:58:16;24.20;99.90
37938;DHT22;23763;48.130;11.602;2023-08-24T02:00:41;24.20;99.90
37938;DHT22;23763;48.130;11.602;2023-08-24T02:03:07;24.20;99.90
37938;DHT22;23763;48.130;11.602;2023-08-24T02:05:33;24.20;99.90
37938;DHT22;23763;48.130;11.602;2023-08-24T02:07:58;24.10;99.90
37938;DHT22;23763;48.130;11.602;2023-08-24T02:10:25;24.20;99.90
37938;DHT22;23763;48.130;11.602;2023-08-24T02:12:51;24.10;99.90
37938;DHT22;23763;48.130;11.602;2023-08-24T02:15:17;24.10;99.90
37938;DHT22;23763;48.130;11.602;2023-08-24T02:17:42;24.10;99.90
37938;DHT22;23763;48.130;11.602;2023-08-24T02:20:09;24.10;99.90
37938;DHT22;23763;48.130;11.602;2023-08-24T02:22:37;24.00;99.90
37938;DHT22;23763;48.130;11.602;2023-08-24T02:25:02;24.00;99.90
37938;DHT22;23763;48.130;11.602;2023-08-24T02:27:30;24.00;99.90
37938;DHT22;23763;48.130;11.602;2023-08-24T02:29:56;24.00;99.90
37938;DHT22;23763;48.130;11.602;2023-08-24T02:32:21;24.00;99.90
37938;DHT22;23763;48.130;11.602;2023-08-24T02:34:47;24.00;99.90
37938;DHT22;23763;48.130;11.602;2023-08-24T02:37:12;24.00;99.90
37938;DHT22;23763;48.130;11.602;2023-08-24T02:39:38;24.00;99.90
37938;DHT22;23763;48.130;11.602;2023-08-24T02:42:04;24.00;99.90
37938;DHT22;23763;48.130;11.602;2023-08-24T02:44:29;24.00;99.90
37938;DHT22;23763;48.130;11.602;2023-08-24T02:46:56;23.90;99.90
37938;DHT22;23763;48.130;11.602;2023-08-24T02:49:22;23.90;99.90
37938;DHT22;23763;48.130;11.602;2023-08-24T02:51:48;23.90;99.90
37938;DHT22;23763;48.130;11.602;2023-08-24T02:54:13;23.90;99.90
37938;DHT22;23763;48.130;11.602;2023-08-24T02:56:39;23.80;99.90
37938;DHT22;23763;48.130;11.602;2023-08-24T02:59:05;23.90;99.90
37938;DHT22;23763;48.130;11.602;2023-08-24T03:01:30;23.90;99.90
37938;DHT22;23763;48.130;11.602;2023-08-24T03:03:56;23.80;99.90
37938;DHT22;23763;48.130;11.602;2023-08-24T03:06:21;23.70;99.90
37938;DHT22;23763;48.130;11.602;2023-08-24T03:08:49;23.70;99.90
37938;DHT22;23763;48.130;11.602;2023-08-24T03:11:15;23.60;99.90
37938;DHT22;23763;48.130;11.602;2023-08-24T03:13:40;23.60;99.90
37938;DHT22;23763;48.130;11.602;2023-08-24T03:16:07;23.60;99.90
37938;DHT22;23763;48.130;11.602;2023-08-24T03:18:32;23.60;99.90
37938;DHT22;23763;48.130;11.602;2023-08-24T03:20:58;23.60;99.90
37938;DHT22;23763;48.130;11.602;2023-08-24T03:23:24;23.50;99.90
37938;DHT22;23763;48.130;11.602;2023-08-24T03:25:50;23.50;99.90
37938;DHT22;23763;48.130;11.602;2023-08-24T03:28:15;23.50;99.90
37938;DHT22;23763;48.130;11.602;2023-08-24T03:30:50;23.40;99.90
37938;DHT22;23763;48.130;11.602;2023-08-24T03:33:16;23.30;99.90
37938;DHT22;23763;48.130;11.602;2023-08-24T03:35:42;23.30;99.90
37938;DHT22;23763;48.130;11.602;2023-08-24T03:38:08;23.20;99.90
37938;DHT22;23763;48.130;11.602;2023-08-24T03:40:33;23.20;99.90
37938;DHT22;23763;48.130;11.602;2023-08-24T03:43:00;23.20;99.90
37938;DHT22;23763;48.130;11.602;2023-08-24T03:45:26;23.20;99.90
37938;DHT22;23763;48.130;11.602;2023-08-24T03:47:52;23.10;99.90
37938;DHT22;23763;48.130;11.602;2023-08-24T03:50:17;23.00;99.90
37938;DHT22;23763;48.130;11.602;2023-08-24T03:52:43;23.00;99.90
37938;DHT22;23763;48.130;11.602;2023-08-24T03:55:08;23.10;99.90
37938;DHT22;23763;48.130;11.602;2023-08-24T03:57:34;23.10;99.90
37938;DHT22;23763;48.130;11.602;2023-08-24T04:00:00;23.10;99.90
37938;DHT22;23763;48.130;11.602;2023-08-24T04:02:26;23.00;99.90
37938;DHT22;23763;48.130;11.602;2023-08-24T04:04:52;23.00;99.90
37938;DHT22;23763;48.130;11.602;2023-08-24T04:07:18;23.00;99.90
37938;DHT22;23763;48.130;11.602;2023-08-24T04:09:43;23.00;99.90
37938;DHT22;23763;48.130;11.602;2023-08-24T04:12:11;22.90;99.90
37938;DHT22;23763;48.130;11.602;2023-08-24T04:14:36;22.90;99.90
37938;DHT22;23763;48.130;11.602;2023-08-24T04:17:02;23.00;99.90
37938;DHT22;23763;48.130;11.602;2023-08-24T04:19:27;23.00;99.90
37938;DHT22;23763;48.130;11.602;2023-08-24T04:21:53;23.00;99.90
37938;DHT22;23763;48.130;11.602;2023-08-24T04:24:19;22.90;99.90
37938;DHT22;23763;48.130;11.602;2023-08-24T04:26:44;22.90;99.90
37938;DHT22;23763;48.130;11.602;2023-08-24T04:29:10;22.90;99.90
37938;DHT22;23763;48.130;11.602;2023-08-24T04:31:35;22.90;99.90
37938;DHT22;23763;48.130;11.602;2023-08-24T04:34:02;22.90;99.90
37938;DHT22;23763;48.130;11.602;2023-08-24T04:36:29;23.00;99.90
37938;DHT22;23763;48.130;11.602;2023-08-24T04:38:54;23.00;99.90
37938;DHT22;23763;48.130;11.602;2023-08-24T04:41:20;23.10;99.90
37938;DHT22;23763;48.130;11.602;2023-08-24T04:43:46;23.10;99.90
37938;DHT22;23763;48.130;11.602;2023-08-24T04:46:11;23.10;99.90
37938;DHT22;23763;48.130;11.602;2023-08-24T04:48:37;23.10;99.90
37938;DHT22;23763;48.130;11.602;2023-08-24T04:51:03;23.20;99.90
37938;DHT22;23763;48.130;11.602;2023-08-24T04:53:29;23.20;99.90
37938;DHT22;23763;48.130;11.602;2023-08-24T04:55:54;23.20;99.90
37938;DHT22;23763;48.130;11.602;2023-08-24T04:58:20;23.20;99.90
37938;DHT22;23763;48.130;11.602;2023-08-24T05:00:46;23.20;99.90
37938;DHT22;23763;48.130;11.602;2023-08-24T05:03:14;23.20;99.90
37938;DHT22;23763;48.130;11.602;2023-08-24T05:05:40;23.30;99.90
37938;DHT22;23763;48.130;11.602;2023-08-24T05:08:06;23.20;99.90
37938;DHT22;23763;48.130;11.602;2023-08-24T05:10:32;23.20;99.90
37938;DHT22;23763;48.130;11.602;2023-08-24T05:12:59;23.20;99.90
37938;DHT22;23763;48.130;11.602;2023-08-24T05:15:25;23.20;99.90
37938;DHT22;23763;48.130;11.602;2023-08-24T05:17:50;23.20;99.90
37938;DHT22;23763;48.130;11.602;2023-08-24T05:20:20;23.30;99.90
37938;DHT22;23763;48.130;11.602;2023-08-24T05:22:47;23.30;99.90
37938;DHT22;23763;48.130;11.602;2023-08-24T05:25:12;23.40;99.90
37938;DHT22;23763;48.130;11.602;2023-08-24T05:27:39;23.50;99.90
37938;DHT22;23763;48.130;11.602;2023-08-24T05:30:06;23.40;99.90
37938;DHT22;23763;48.130;11.602;2023-08-24T05:32:31;23.30;99.90
37938;DHT22;23763;48.130;11.602;2023-08-24T05:34:57;23.20;99.90
37938;DHT22;23763;48.130;11.602;2023-08-24T05:37:23;23.30;99.90
37938;DHT22;23763;48.130;11.602;2023-08-24T05:39:49;23.40;99.90
37938;DHT22;23763;48.130;11.602;2023-08-24T05:42:15;23.60;99.90
37938;DHT22;23763;48.130;11.602;2023-08-24T05:44:40;23.80;99.90
37938;DHT22;23763;48.130;11.602;2023-08-24T05:47:06;23.80;99.90
37938;DHT22;23763;48.130;11.602;2023-08-24T05:49:32;23.70;99.90
37938;DHT22;23763;48.130;11.602;2023-08-24T05:51:57;23.50;99.90
37938;DHT22;23763;48.130;11.602;2023-08-24T05:54:23;23.30;99.90
37938;DHT22;23763;48.130;11.602;2023-08-24T05:56:49;23.40;99.90
37938;DHT22;23763;48.130;11.602;2023-08-24T05:59:15;23.50;99.90
37938;DHT22;23763;48.130;11.602;2023-08-24T06:01:41;23.70;99.90
37938;DHT22;23763;48.130;11.602;2023-08-24T06:04:09;23.60;99.90
37938;DHT22;23763;48.130;11.602;2023-08-24T06:06:35;23.60;99.90
37938;DHT22;23763;48.130;11.602;2023-08-24T06:09:01;23.80;99.90
37938;DHT22;23763;48.130;11.602;2023-08-24T06:11:29;23.90;99.90
37938;DHT22;23763;48.130;11.602;2023-08-24T06:13:55;24.00;99.90
37938;DHT22;23763;48.130;11.602;2023-08-24T06:16:20;24.00;99.90
37938;DHT22;23763;48.130;11.602;2023-08-24T06:18:46;24.10;99.90
37938;DHT22;23763;48.130;11.602;2023-08-24T06:21:12;24.30;99.90
37938;DHT22;23763;48.130;11.602;2023-08-24T06:23:38;24.30;99.90
37938;DHT22;23763;48.130;11.602;2023-08-24T06:26:04;24.30;99.90
37938;DHT22;23763;48.130;11.602;2023-08-24T06:28:30;24.30;99.90
37938;DHT22;23763;48.130;11.602;2023-08-24T06:30:56;24.50;99.90
37938;DHT22;23763;48.130;11.602;2023-08-24T06:33:27;24.50;99.90
37938;DHT22;23763;48.130;11.602;2023-08-24T06:35:58;24.80;99.90
37938;DHT22;23763;48.130;11.602;2023-08-24T06:38:25;25.00;99.90
37938;DHT22;23763;48.130;11.602;2023-08-24T06:40:51;25.00;99.90
37938;DHT22;23763;48.130;11.602;2023-08-24T06:43:16;25.00;99.90
37938;DHT22;23763;48.130;11.602;2023-08-24T06:45:44;25.10;99.90
37938;DHT22;23763;48.130;11.602;2023-08-24T06:48:09;25.00;99.90
37938;DHT22;23763;48.130;11.602;2023-08-24T06:50:35;25.10;99.90
37938;DHT22;23763;48.130;11.602;2023-08-24T06:53:02;25.30;99.90
37938;DHT22;23763;48.130;11.602;2023-08-24T06:55:29;25.60;99.90
37938;DHT22;23763;48.130;11.602;2023-08-24T06:57:54;25.80;99.90
37938;DHT22;23763;48.130;11.602;2023-08-24T07:00:20;25.90;99.90
37938;DHT22;23763;48.130;11.602;2023-08-24T07:02:47;25.90;99.90
37938;DHT22;23763;48.130;11.602;2023-08-24T07:05:14;26.10;99.90
37938;DHT22;23763;48.130;11.602;2023-08-24T07:07:40;26.20;99.90
37938;DHT22;23763;48.130;11.602;2023-08-24T07:10:08;26.30;99.90
37938;DHT22;23763;48.130;11.602;2023-08-24T07:12:34;26.40;99.90
37938;DHT22;23763;48.130;11.602;2023-08-24T07:15:00;26.30;99.90
37938;DHT22;23763;48.130;11.602;2023-08-24T07:17:25;26.50;99.90
37938;DHT22;23763;48.130;11.602;2023-08-24T07:19:51;26.60;99.90
37938;DHT22;23763;48.130;11.602;2023-08-24T07:22:17;26.60;99.90
37938;DHT22;23763;48.130;11.602;2023-08-24T07:24:42;26.60;99.90
37938;DHT22;23763;48.130;11.602;2023-08-24T07:27:08;26.50;99.90
37938;DHT22;23763;48.130;11.602;2023-08-24T07:29:34;26.50;99.90
37938;DHT22;23763;48.130;11.602;2023-08-24T07:32:00;26.70;99.90
37938;DHT22;23763;48.130;11.602;2023-08-24T07:34:25;26.70;99.90
37938;DHT22;23763;48.130;11.602;2023-08-24T07:36:51;26.80;99.90
37938;DHT22;23763;48.130;11.602;2023-08-24T07:39:17;27.10;99.90
37938;DHT22;23763;48.130;11.602;2023-08-24T07:41:43;27.20;99.90
37938;DHT22;23763;48.130;11.602;2023-08-24T07:44:09;27.40;99.90
37938;DHT22;23763;48.130;11.602;2023-08-24T07:46:35;27.70;99.90
37938;DHT22;23763;48.130;11.602;2023-08-24T07:49:00;28.00;99.90
37938;DHT22;23763;48.130;11.602;2023-08-24T07:51:26;27.90;99.90
37938;DHT22;23763;48.130;11.602;2023-08-24T07:53:52;27.80;99.90
37938;DHT22;23763;48.130;11.602;2023-08-24T07:56:18;27.90;99.90
37938;DHT22;23763;48.130;11.602;2023-08-24T07:58:44;27.90;99.90
37938;DHT22;23763;48.130;11.602;2023-08-24T08:01:11;28.00;99.90
37938;DHT22;23763;48.130;11.602;2023-08-24T08:03:36;28.30;99.90
37938;DHT22;23763;48.130;11.602;2023-08-24T08:06:02;28.60;99.90
37938;DHT22;23763;48.130;11.602;2023-08-24T08:08:28;28.70;99.90
37938;DHT22;23763;48.130;11.602;2023-08-24T08:11:02;28.90;99.90
37938;DHT22;23763;48.130;11.602;2023-08-24T08:13:28;29.10;99.90
37938;DHT22;23763;48.130;11.602;2023-08-24T08:16:03;29.60;99.90
37938;DHT22;23763;48.130;11.602;2023-08-24T08:18:30;30.40;99.90
37938;DHT22;23763;48.130;11.602;2023-08-24T08:20:56;31.20;99.90
37938;DHT22;23763;48.130;11.602;2023-08-24T08:23:21;31.50;99.30
37938;DHT22;23763;48.130;11.602;2023-08-24T08:25:47;32.20;98.50
37938;DHT22;23763;48.130;11.602;2023-08-24T08:28:13;32.50;97.90
37938;DHT22;23763;48.130;11.602;2023-08-24T08:30:38;33.10;96.70
37938;DHT22;23763;48.130;11.602;2023-08-24T08:33:04;33.50;95.90
37938;DHT22;23763;48.130;11.602;2023-08-24T08:35:30;33.70;95.30
37938;DHT22;23763;48.130;11.602;2023-08-24T08:37:55;33.70;94.80
37938;DHT22;23763;48.130;11.602;2023-08-24T08:40:21;33.40;94.60
37938;DHT22;23763;48.130;11.602;2023-08-24T08:42:50;33.50;94.30
37938;DHT22;23763;48.130;11.602;2023-08-24T08:45:16;33.40;94.00
37938;DHT22;23763;48.130;11.602;2023-08-24T08:47:44;33.20;94.10
37938;DHT22;23763;48.130;11.602;2023-08-24T08:50:10;33.20;93.90
37938;DHT22;23763;48.130;11.602;2023-08-24T08:52:35;33.00;94.10
37938;DHT22;23763;48.130;11.602;2023-08-24T08:55:01;33.20;94.30
37938;DHT22;23763;48.130;11.602;2023-08-24T08:57:31;33.20;94.30
37938;DHT22;23763;48.130;11.602;2023-08-24T08:59:57;33.10;94.50
37938;DHT22;23763;48.130;11.602;2023-08-24T09:02:24;33.30;94.00
37938;DHT22;23763;48.130;11.602;2023-08-24T09:04:51;33.40;93.70
37938;DHT22;23763;48.130;11.602;2023-08-24T09:07:16;33.60;93.50
37938;DHT22;23763;48.130;11.602;2023-08-24T09:09:43;33.30;93.50
37938;DHT22;23763;48.130;11.602;2023-08-24T09:12:08;33.30;93.10
37938;DHT22;23763;48.130;11.602;2023-08-24T09:14:34;33.30;93.40
37938;DHT22;23763;48.130;11.602;2023-08-24T09:17:00;33.70;93.40
37938;DHT22;23763;48.130;11.602;2023-08-24T09:19:30;33.70;93.20
37938;DHT22;23763;48.130;11.602;2023-08-24T09:22:00;33.30;93.80
37938;DHT22;23763;48.130;11.602;2023-08-24T09:24:31;32.90;93.80
37938;DHT22;23763;48.130;11.602;2023-08-24T09:27:17;32.40;94.60
37938;DHT22;23763;48.130;11.602;2023-08-24T09:29:42;32.20;95.00
37938;DHT22;23763;48.130;11.602;2023-08-24T09:32:08;31.90;95.30
37938;DHT22;23763;48.130;11.602;2023-08-24T09:34:36;31.80;95.50
37938;DHT22;23763;48.130;11.602;2023-08-24T09:37:02;31.60;96.10
37938;DHT22;23763;48.130;11.602;2023-08-24T09:39:30;31.90;96.00
37938;DHT22;23763;48.130;11.602;2023-08-24T09:42:00;31.90;95.40
37938;DHT22;23763;48.130;11.602;2023-08-24T09:44:28;32.20;95.30
37938;DHT22;23763;48.130;11.602;2023-08-24T09:46:54;32.60;95.00
37938;DHT22;23763;48.130;11.602;2023-08-24T09:49:19;32.40;94.50
37938;DHT22;23763;48.130;11.602;2023-08-24T09:51:46;32.50;94.30
37938;DHT22;23763;48.130;11.602;2023-08-24T09:54:11;32.40;94.30
37938;DHT22;23763;48.130;11.602;2023-08-24T09:56:41;32.30;94.40
37938;DHT22;23763;48.130;11.602;2023-08-24T09:59:17;32.50;93.80
37938;DHT22;23763;48.130;11.602;2023-08-24T10:01:47;32.90;93.30
37938;DHT22;23763;48.130;11.602;2023-08-24T10:04:15;33.30;93.30
37938;DHT22;23763;48.130;11.602;2023-08-24T10:06:42;33.30;93.30
37938;DHT22;23763;48.130;11.602;2023-08-24T10:09:18;33.40;92.30
37938;DHT22;23763;48.130;11.602;2023-08-24T10:11:50;33.30;92.00
37938;DHT22;23763;48.130;11.602;2023-08-24T10:14:24;33.20;91.90
37938;DHT22;23763;48.130;11.602;2023-08-24T10:16:52;33.00;91.70
37938;DHT22;23763;48.130;11.602;2023-08-24T10:19:20;32.90;92.60
37938;DHT22;23763;48.130;11.602;2023-08-24T10:21:46;32.80;91.20
37938;DHT22;23763;48.130;11.602;2023-08-24T10:24:12;32.80;91.80
37938;DHT22;23763;48.130;11.602;2023-08-24T10:26:39;32.90;90.90
37938;DHT22;23763;48.130;11.602;2023-08-24T10:29:06;32.40;90.80
37938;DHT22;23763;48.130;11.602;2023-08-24T10:31:32;32.40;90.30
37938;DHT22;23763;48.130;11.602;2023-08-24T10:33:59;32.40;85.40
37938;DHT22;23763;48.130;11.602;2023-08-24T10:36:25;32.40;89.60
37938;DHT22;23763;48.130;11.602;2023-08-24T10:38:55;32.40;91.20
37938;DHT22;23763;48.130;11.602;2023-08-24T10:41:26;32.40;90.90
37938;DHT22;23763;48.130;11.602;2023-08-24T10:43:52;32.50;91.40
37938;DHT22;23763;48.130;11.602;2023-08-24T10:46:18;32.50;91.80
37938;DHT22;23763;48.130;11.602;2023-08-24T10:53:56;32.40;91.70
37938;DHT22;23763;48.130;11.602;2023-08-24T10:56:34;32.60;91.40
37938;DHT22;23763;48.130;11.602;2023-08-24T10:59:11;32.70;90.70
37938;DHT22;23763;48.130;11.602;2023-08-24T11:01:42;32.80;90.60
37938;DHT22;23763;48.130;11.602;2023-08-24T11:04:10;32.80;89.20
37938;DHT22;23763;48.130;11.602;2023-08-24T11:06:54;32.90;87.70
37938;DHT22;23763;48.130;11.602;2023-08-24T11:09:20;32.80;85.10
37938;DHT22;23763;48.130;11.602;2023-08-24T11:12:01;32.60;86.70
37938;DHT22;23763;48.130;11.602;2023-08-24T11:14:29;32.80;81.80
37938;DHT22;23763;48.130;11.602;2023-08-24T11:17:17;32.80;83.90
37938;DHT22;23763;48.130;11.602;2023-08-24T11:19:53;32.80;84.20
37938;DHT22;23763;48.130;11.602;2023-08-24T11:22:23;32.80;84.70
37938;DHT22;23763;48.130;11.602;2023-08-24T11:24:50;33.00;83.70
37938;DHT22;23763;48.130;11.602;2023-08-24T11:27:16;33.00;83.30
37938;DHT22;23763;48.130;11.602;2023-08-24T11:29:42;32.80;82.30
37938;DHT22;23763;48.130;11.602;2023-08-24T11:32:07;32.90;82.00
37938;DHT22;23763;48.130;11.602;2023-08-24T11:34:36;33.00;79.50
37938;DHT22;23763;48.130;11.602;2023-08-24T11:37:03;33.10;79.00
37938;DHT22;23763;48.130;11.602;2023-08-24T11:39:28;33.00;73.80
37938;DHT22;23763;48.130;11.602;2023-08-24T11:42:01;33.00;76.30
37938;DHT22;23763;48.130;11.602;2023-08-24T11:44:28;33.00;77.90
37938;DHT22;23763;48.130;11.602;2023-08-24T11:46:59;33.10;74.90
37938;DHT22;23763;48.130;11.602;2023-08-24T11:49:25;33.10;78.10
37938;DHT22;23763;48.130;11.602;2023-08-24T11:51:51;33.10;79.80
37938;DHT22;23763;48.130;11.602;2023-08-24T11:54:19;33.10;80.70
37938;DHT22;23763;48.130;11.602;2023-08-24T11:56:46;33.20;78.60
37938;DHT22;23763;48.130;11.602;2023-08-24T11:59:16;33.10;65.10
37938;DHT22;23763;48.130;11.602;2023-08-24T12:01:42;33.00;69.90
37938;DHT22;23763;48.130;11.602;2023-08-24T12:04:08;32.90;68.20
37938;DHT22;23763;48.130;11.602;2023-08-24T12:06:34;33.00;69.40
37938;DHT22;23763;48.130;11.602;2023-08-24T12:09:00;33.20;69.50
37938;DHT22;23763;48.130;11.602;2023-08-24T12:11:26;33.00;62.50
37938;DHT22;23763;48.130;11.602;2023-08-24T12:13:54;33.10;66.70
37938;DHT22;23763;48.130;11.602;2023-08-24T12:16:21;33.30;69.60
37938;DHT22;23763;48.130;11.602;2023-08-24T12:18:52;33.20;71.60
37938;DHT22;23763;48.130;11.602;2023-08-24T12:21:18;33.20;72.50
37938;DHT22;23763;48.130;11.602;2023-08-24T12:23:54;33.10;73.10
37938;DHT22;23763;48.130;11.602;2023-08-24T12:26:20;33.10;74.30
37938;DHT22;23763;48.130;11.602;2023-08-24T12:28:49;33.10;69.60
37938;DHT22;23763;48.130;11.602;2023-08-24T12:31:17;33.10;73.80
37938;DHT22;23763;48.130;11.602;2023-08-24T12:33:43;33.20;72.30
37938;DHT22;23763;48.130;11.602;2023-08-24T12:36:09;33.20;72.00
37938;DHT22;23763;48.130;11.602;2023-08-24T12:38:35;33.20;72.50
37938;DHT22;23763;48.130;11.602;2023-08-24T12:41:02;33.30;72.90
37938;DHT22;23763;48.130;11.602;2023-08-24T12:43:27;33.20;73.10
37938;DHT22;23763;48.130;11.602;2023-08-24T12:45:53;33.00;71.10
37938;DHT22;23763;48.130;11.602;2023-08-24T12:48:18;33.20;68.30
37938;DHT22;23763;48.130;11.602;2023-08-24T12:50:44;33.20;68.00
37938;DHT22;23763;48.130;11.602;2023-08-24T12:53:10;33.20;70.30
37938;DHT22;23763;48.130;11.602;2023-08-24T12:55:38;33.10;69.10
37938;DHT22;23763;48.130;11.602;2023-08-24T12:58:04;33.00;67.40
37938;DHT22;23763;48.130;11.602;2023-08-24T13:00:29;33.10;71.20
37938;DHT22;23763;48.130;11.602;2023-08-24T13:02:56;33.20;76.30
37938;DHT22;23763;48.130;11.602;2023-08-24T13:05:21;33.20;76.10
37938;DHT22;23763;48.130;11.602;2023-08-24T13:07:47;33.40;75.30
37938;DHT22;23763;48.130;11.602;2023-08-24T13:10:13;33.50;76.40
37938;DHT22;23763;48.130;11.602;2023-08-24T13:12:39;33.50;78.10
37938;DHT22;23763;48.130;11.602;2023-08-24T13:15:05;33.20;79.00
37938;DHT22;23763;48.130;11.602;2023-08-24T13:17:31;33.20;79.80
37938;DHT22;23763;48.130;11.602;2023-08-24T13:19:57;33.30;81.00
37938;DHT22;23763;48.130;11.602;2023-08-24T13:22:23;33.40;79.50
37938;DHT22;23763;48.130;11.602;2023-08-24T13:24:49;33.30;77.60
37938;DHT22;23763;48.130;11.602;2023-08-24T13:27:14;33.20;76.70
37938;DHT22;23763;48.130;11.602;2023-08-24T13:29:40;33.20;78.50
37938;DHT22;23763;48.130;11.602;2023-08-24T13:32:06;33.30;81.70
37938;DHT22;23763;48.130;11.602;2023-08-24T13:34:32;33.40;81.90
37938;DHT22;23763;48.130;11.602;2023-08-24T13:36:58;33.70;79.20
37938;DHT22;23763;48.130;11.602;2023-08-24T13:39:26;33.60;81.10
37938;DHT22;23763;48.130;11.602;2023-08-24T13:41:54;33.40;82.30
37938;DHT22;23763;48.130;11.602;2023-08-24T13:44:20;33.30;82.70
37938;DHT22;23763;48.130;11.602;2023-08-24T13:46:46;33.20;83.40
37938;DHT22;23763;48.130;11.602;2023-08-24T13:49:11;33.40;81.70
37938;DHT22;23763;48.130;11.602;2023-08-24T13:51:37;33.50;81.90
37938;DHT22;23763;48.130;11.602;2023-08-24T13:54:11;33.60;80.20
37938;DHT22;23763;48.130;11.602;2023-08-24T13:56:37;33.60;79.20
37938;DHT22;23763;48.130;11.602;2023-08-24T13:59:03;33.50;78.00
37938;DHT22;23763;48.130;11.602;2023-08-24T14:01:29;33.60;78.00
37938;DHT22;23763;48.130;11.602;2023-08-24T14:03:54;33.60;78.70
37938;DHT22;23763;48.130;11.602;2023-08-24T14:06:20;33.60;80.30
37938;DHT22;23763;48.130;11.602;2023-08-24T14:08:46;33.50;82.20
37938;DHT22;23763;48.130;11.602;2023-08-24T14:11:11;33.40;82.90
37938;DHT22;23763;48.130;11.602;2023-08-24T14:13:37;33.50;81.70
37938;DHT22;23763;48.130;11.602;2023-08-24T14:16:03;33.70;81.40
37938;DHT22;23763;48.130;11.602;2023-08-24T14:18:29;33.70;81.70
37938;DHT22;23763;48.130;11.602;2023-08-24T14:20:56;33.80;82.90
37938;DHT22;23763;48.130;11.602;2023-08-24T14:23:21;33.80;82.20
37938;DHT22;23763;48.130;11.602;2023-08-24T14:25:47;33.80;80.30
37938;DHT22;23763;48.130;11.602;2023-08-24T14:28:14;33.70;83.90
37938;DHT22;23763;48.130;11.602;2023-08-24T14:30:39;33.70;84.20
37938;DHT22;23763;48.130;11.602;2023-08-24T14:33:05;33.70;83.50
37938;DHT22;23763;48.130;11.602;2023-08-24T14:35:31;33.50;82.50
37938;DHT22;23763;48.130;11.602;2023-08-24T14:37:57;33.40;83.70
37938;DHT22;23763;48.130;11.602;2023-08-24T14:40:23;33.20;84.30
37938;DHT22;23763;48.130;11.602;2023-08-24T14:42:48;33.30;84.80
37938;DHT22;23763;48.130;11.602;2023-08-24T14:45:15;33.40;83.60
37938;DHT22;23763;48.130;11.602;2023-08-24T14:47:41;33.40;82.50
37938;DHT22;23763;48.130;11.602;2023-08-24T14:50:07;33.30;82.20
37938;DHT22;23763;48.130;11.602;2023-08-24T14:52:33;33.30;82.20
37938;DHT22;23763;48.130;11.602;2023-08-24T14:54:59;33.40;83.20
37938;DHT22;23763;48.130;11.602;2023-08-24T14:57:25;33.50;84.50
37938;DHT22;23763;48.130;11.602;2023-08-24T14:59:50;33.40;82.20
37938;DHT22;23763;48.130;11.602;2023-08-24T15:02:16;33.30;82.20
37938;DHT22;23763;48.130;11.602;2023-08-24T15:04:41;33.40;81.80
37938;DHT22;23763;48.130;11.602;2023-08-24T15:07:07;33.50;81.80
37938;DHT22;23763;48.130;11.602;2023-08-24T15:09:32;33.60;84.60
37938;DHT22;23763;48.130;11.602;2023-08-24T15:11:58;33.70;85.00
37938;DHT22;23763;48.130;11.602;2023-08-24T15:14:24;33.60;83.00
37938;DHT22;23763;48.130;11.602;2023-08-24T15:16:49;33.60;83.00
37938;DHT22;23763;48.130;11.602;2023-08-24T15:19:15;33.60;82.90
37938;DHT22;23763;48.130;11.602;2023-08-24T15:21:40;33.50;82.90